sensor_id;sensor_type;location;lat;lon;timestamp;pressure;altitude;pressure_sealevel;temperature;humidity
34506;BME280;20748;42.632;23.198;2023-08-12T00:01:40;92638.28;;;17.02;75.38
34506;BME280;20748;42.632;23.198;2023-08-12T00:04:12;92635.66;;;16.94;75.71
34506;BME280;20748;42.632;23.198;2023-08-12T00:06:47;92635.19;;;16.91;75.96
34506;BME280;20748;42.632;23.198;2023-08-12T00:09:21;92632.75;;;16.86;77.84
34506;BME280;20748;42.632;23.198;2023-08-12T00:11:53;92636.38;;;16.82;78.85
34506;BME280;20748;42.632;23.198;2023-08-12T00:14:25;92637.66;;;16.75;78.32
34506;BME280;20748;42.632;23.198;2023-08-12T00:16:58;92632.75;;;16.65;79.94
34506;BME280;20748;42.632;23.198;2023-08-12T00:19:30;92624.78;;;16.53;80.69
34506;BME280;20748;42.632;23.198;2023-08-12T00:22:03;92624.81;;;16.44;81.52
34506;BME280;20748;42.632;23.198;2023-08-12T00:24:37;92620.84;;;16.37;81.61
34506;BME280;20748;42.632;23.198;2023-08-12T00:27:09;92620.56;;;16.30;81.90
34506;BME280;20748;42.632;23.198;2023-08-12T00:29:42;92628.66;;;16.25;82.14
34506;BME280;20748;42.632;23.198;2023-08-12T00:32:14;92623.81;;;16.27;82.24
34506;BME280;20748;42.632;23.198;2023-08-12T00:34:46;92620.63;;;16.21;82.47
34506;BME280;20748;42.632;23.198;2023-08-12T00:37:20;92619.13;;;16.12;83.27
34506;BME280;20748;42.632;23.198;2023-08-12T00:39:53;92614.47;;;16.08;83.05
34506;BME280;20748;42.632;23.198;2023-08-12T00:42:25;92614.97;;;16.02;83.88
34506;BME280;20748;42.632;23.198;2023-08-12T00:44:58;92606.47;;;15.96;84.56
34506;BME280;20748;42.632;23.198;2023-08-12T00:47:30;92613.44;;;15.92;84.23
34506;BME280;20748;42.632;23.198;2023-08-12T00:50:04;92619.66;;;15.87;84.11
34506;BME280;20748;42.632;23.198;2023-08-12T00:52:37;92612.22;;;15.80;84.66
34506;BME280;20748;42.632;23.198;2023-08-12T00:55:10;92613.97;;;15.76;85.05
34506;BME280;20748;42.632;23.198;2023-08-12T00:57:44;92615.38;;;15.65;85.23
34506;BME280;20748;42.632;23.198;2023-08-12T01:00:18;92612.00;;;15.55;85.63
34506;BME280;20748;42.632;23.198;2023-08-12T01:02:53;92613.09;;;15.54;85.89
34506;BME280;20748;42.632;23.198;2023-08-12T01:05:29;92611.09;;;15.51;85.75
34506;BME280;20748;42.632;23.198;2023-08-12T01:08:02;92607.25;;;15.49;86.23
34506;BME280;20748;42.632;23.198;2023-08-12T01:10:39;92612.50;;;15.49;86.72
34506;BME280;20748;42.632;23.198;2023-08-12T01:13:38;92616.03;;;15.44;86.82
34506;BME280;20748;42.632;23.198;2023-08-12T01:16:15;92617.28;;;15.38;87.35
34506;BME280;20748;42.632;23.198;2023-08-12T01:18:50;92609.56;;;15.33;86.82
34506;BME280;20748;42.632;23.198;2023-08-12T01:21:24;92611.75;;;15.30;87.82
34506;BME280;20748;42.632;23.198;2023-08-12T01:23:59;92611.44;;;15.32;88.02
34506;BME280;20748;42.632;23.198;2023-08-12T01:26:32;92611.91;;;15.25;87.97
34506;BME280;20748;42.632;23.198;2023-08-12T01:29:04;92610.53;;;15.19;88.06
34506;BME280;20748;42.632;23.198;2023-08-12T01:31:42;92615.94;;;15.14;88.12
34506;BME280;20748;42.632;23.198;2023-08-12T01:34:25;92613.00;;;15.15;87.80
34506;BME280;20748;42.632;23.198;2023-08-12T01:37:03;92608.53;;;15.07;87.76
34506;BME280;20748;42.632;23.198;2023-08-12T01:39:39;92608.56;;;14.98;88.58
34506;BME280;20748;42.632;23.198;2023-08-12T01:42:13;92614.41;;;14.86;88.96
34506;BME280;20748;42.632;23.198;2023-08-12T01:44:46;92604.06;;;14.81;89.32
34506;BME280;20748;42.632;23.198;2023-08-12T01:47:19;92598.66;;;14.77;89.61
34506;BME280;20748;42.632;23.198;2023-08-12T01:49:51;92608.97;;;14.74;89.23
34506;BME280;20748;42.632;23.198;2023-08-12T01:52:24;92605.88;;;14.63;89.70
34506;BME280;20748;42.632;23.198;2023-08-12T01:54:57;92608.19;;;14.56;89.87
34506;BME280;20748;42.632;23.198;2023-08-12T01:57:29;92605.69;;;14.42;90.77
34506;BME280;20748;42.632;23.198;2023-08-12T02:00:02;92604.00;;;14.46;91.10
34506;BME280;20748;42.632;23.198;2023-08-12T02:02:48;92605.09;;;14.45;90.27
34506;BME280;20748;42.632;23.198;2023-08-12T02:05:20;92605.09;;;14.45;90.91
34506;BME280;20748;42.632;23.198;2023-08-12T02:07:55;92612.94;;;14.36;91.15
34506;BME280;20748;42.632;23.198;2023-08-12T02:10:28;92607.06;;;14.30;91.46
34506;BME280;20748;42.632;23.198;2023-08-12T02:13:00;92607.50;;;14.15;91.68
34506;BME280;20748;42.632;23.198;2023-08-12T02:15:34;92606.56;;;14.19;92.62
34506;BME280;20748;42.632;23.198;2023-08-12T02:18:07;92611.81;;;14.19;91.85
34506;BME280;20748;42.632;23.198;2023-08-12T02:20:40;92607.47;;;14.06;93.12
34506;BME280;20748;42.632;23.198;2023-08-12T02:23:12;92603.34;;;14.14;92.42
34506;BME280;20748;42.632;23.198;2023-08-12T02:25:46;92601.59;;;14.09;92.50
34506;BME280;20748;42.632;23.198;2023-08-12T02:28:18;92609.78;;;14.07;92.55
34506;BME280;20748;42.632;23.198;2023-08-12T02:30:51;92609.16;;;14.02;92.62
34506;BME280;20748;42.632;23.198;2023-08-12T02:33:23;92601.91;;;13.99;92.36
34506;BME280;20748;42.632;23.198;2023-08-12T02:35:57;92600.94;;;13.94;92.84
34506;BME280;20748;42.632;23.198;2023-08-12T02:38:30;92607.59;;;14.01;92.78
34506;BME280;20748;42.632;23.198;2023-08-12T02:41:03;92605.91;;;13.96;92.65
34506;BME280;20748;42.632;23.198;2023-08-12T02:43:35;92615.16;;;13.93;92.51
34506;BME280;20748;42.632;23.198;2023-08-12T02:46:08;92611.75;;;13.93;92.36
34506;BME280;20748;42.632;23.198;2023-08-12T02:48:40;92610.34;;;13.87;92.22
34506;BME280;20748;42.632;23.198;2023-08-12T02:51:12;92612.47;;;13.76;92.72
34506;BME280;20748;42.632;23.198;2023-08-12T02:53:45;92621.09;;;13.76;93.23
34506;BME280;20748;42.632;23.198;2023-08-12T02:56:18;92617.31;;;13.60;94.07
34506;BME280;20748;42.632;23.198;2023-08-12T02:58:50;92619.22;;;13.68;94.20
34506;BME280;20748;42.632;23.198;2023-08-12T03:01:24;92613.97;;;13.68;93.89
34506;BME280;20748;42.632;23.198;2023-08-12T03:03:57;92618.09;;;13.60;94.05
34506;BME280;20748;42.632;23.198;2023-08-12T03:06:29;92622.28;;;13.70;94.37
34506;BME280;20748;42.632;23.198;2023-08-12T03:09:02;92621.31;;;13.57;94.63
34506;BME280;20748;42.632;23.198;2023-08-12T03:11:35;92618.22;;;13.55;94.88
34506;BME280;20748;42.632;23.198;2023-08-12T03:14:10;92608.97;;;13.58;94.66
34506;BME280;20748;42.632;23.198;2023-08-12T03:16:42;92621.78;;;13.59;94.67
34506;BME280;20748;42.632;23.198;2023-08-12T03:19:15;92613.47;;;13.57;94.45
34506;BME280;20748;42.632;23.198;2023-08-12T03:21:48;92616.38;;;13.55;94.27
34506;BME280;20748;42.632;23.198;2023-08-12T03:24:20;92615.28;;;13.56;94.13
34506;BME280;20748;42.632;23.198;2023-08-12T03:26:53;92616.25;;;13.38;95.01
34506;BME280;20748;42.632;23.198;2023-08-12T03:29:26;92624.41;;;13.36;94.99
34506;BME280;20748;42.632;23.198;2023-08-12T03:31:59;92614.09;;;13.40;95.43
34506;BME280;20748;42.632;23.198;2023-08-12T03:34:32;92623.66;;;13.36;95.36
34506;BME280;20748;42.632;23.198;2023-08-12T03:37:04;92625.38;;;13.40;95.41
34506;BME280;20748;42.632;23.198;2023-08-12T03:39:37;92615.97;;;13.39;95.27
34506;BME280;20748;42.632;23.198;2023-08-12T03:42:10;92619.00;;;13.33;95.34
34506;BME280;20748;42.632;23.198;2023-08-12T03:44:44;92614.47;;;13.24;96.17
34506;BME280;20748;42.632;23.198;2023-08-12T03:47:16;92622.28;;;13.15;97.06
34506;BME280;20748;42.632;23.198;2023-08-12T03:49:54;92623.59;;;13.27;96.54
34506;BME280;20748;42.632;23.198;2023-08-12T03:52:27;92628.22;;;13.30;96.41
34506;BME280;20748;42.632;23.198;2023-08-12T03:54:59;92621.63;;;13.33;96.16
34506;BME280;20748;42.632;23.198;2023-08-12T03:57:33;92620.06;;;13.32;96.03
34506;BME280;20748;42.632;23.198;2023-08-12T04:00:06;92627.41;;;13.21;97.20
34506;BME280;20748;42.632;23.198;2023-08-12T04:02:45;92625.09;;;13.19;97.49
34506;BME280;20748;42.632;23.198;2023-08-12T04:05:18;92616.72;;;13.17;97.26
34506;BME280;20748;42.632;23.198;2023-08-12T04:07:50;92625.13;;;13.05;98.15
34506;BME280;20748;42.632;23.198;2023-08-12T04:10:23;92623.84;;;13.16;97.51
34506;BME280;20748;42.632;23.198;2023-08-12T04:12:57;92621.50;;;13.15;97.94
34506;BME280;20748;42.632;23.198;2023-08-12T04:15:29;92620.66;;;13.06;99.00
34506;BME280;20748;42.632;23.198;2023-08-12T04:18:02;92626.44;;;13.16;98.46
34506;BME280;20748;42.632;23.198;2023-08-12T04:20:37;92611.69;;;13.21;98.92
34506;BME280;20748;42.632;23.198;2023-08-12T04:23:10;92618.03;;;13.28;98.68
34506;BME280;20748;42.632;23.198;2023-08-12T04:25:43;92619.09;;;13.27;99.43
34506;BME280;20748;42.632;23.198;2023-08-12T04:28:17;92613.22;;;13.45;98.95
34506;BME280;20748;42.632;23.198;2023-08-12T04:30:50;92609.72;;;13.49;99.35
34506;BME280;20748;42.632;23.198;2023-08-12T04:33:25;92611.59;;;13.58;98.90
34506;BME280;20748;42.632;23.198;2023-08-12T04:35:58;92616.41;;;13.64;97.54
34506;BME280;20748;42.632;23.198;2023-08-12T04:38:31;92615.50;;;13.69;98.07
34506;BME280;20748;42.632;23.198;2023-08-12T04:41:05;92621.69;;;13.73;98.63
34506;BME280;20748;42.632;23.198;2023-08-12T04:43:38;92621.41;;;13.75;98.27
34506;BME280;20748;42.632;23.198;2023-08-12T04:46:11;92622.66;;;13.77;97.01
34506;BME280;20748;42.632;23.198;2023-08-12T04:48:44;92620.22;;;13.90;94.30
34506;BME280;20748;42.632;23.198;2023-08-12T04:51:18;92617.03;;;14.02;93.05
34506;BME280;20748;42.632;23.198;2023-08-12T04:53:51;92620.16;;;14.13;91.76
34506;BME280;20748;42.632;23.198;2023-08-12T04:56:23;92625.25;;;14.27;91.41
34506;BME280;20748;42.632;23.198;2023-08-12T04:58:57;92622.06;;;14.39;89.69
34506;BME280;20748;42.632;23.198;2023-08-12T05:01:30;92621.28;;;14.47;89.04
34506;BME280;20748;42.632;23.198;2023-08-12T05:04:03;92614.06;;;14.61;87.19
34506;BME280;20748;42.632;23.198;2023-08-12T05:06:35;92626.91;;;14.72;86.81
34506;BME280;20748;42.632;23.198;2023-08-12T05:09:08;92620.59;;;14.82;85.45
34506;BME280;20748;42.632;23.198;2023-08-12T05:11:41;92623.97;;;14.91;84.86
34506;BME280;20748;42.632;23.198;2023-08-12T05:14:15;92622.75;;;15.06;84.32
34506;BME280;20748;42.632;23.198;2023-08-12T05:16:47;92628.94;;;15.19;83.65
34506;BME280;20748;42.632;23.198;2023-08-12T05:19:20;92617.94;;;15.26;84.00
34506;BME280;20748;42.632;23.198;2023-08-12T05:21:52;92626.25;;;15.46;84.08
34506;BME280;20748;42.632;23.198;2023-08-12T05:24:25;92628.28;;;15.49;82.52
34506;BME280;20748;42.632;23.198;2023-08-12T05:26:57;92626.25;;;15.54;81.20
34506;BME280;20748;42.632;23.198;2023-08-12T05:29:31;92622.34;;;15.61;81.19
34506;BME280;20748;42.632;23.198;2023-08-12T05:32:04;92628.38;;;15.70;80.95
34506;BME280;20748;42.632;23.198;2023-08-12T05:34:36;92628.78;;;15.81;80.17
34506;BME280;20748;42.632;23.198;2023-08-12T05:37:09;92625.22;;;15.94;80.01
34506;BME280;20748;42.632;23.198;2023-08-12T05:39:41;92634.28;;;16.06;79.55
34506;BME280;20748;42.632;23.198;2023-08-12T05:42:13;92635.34;;;16.14;78.32
34506;BME280;20748;42.632;23.198;2023-08-12T05:44:46;92638.13;;;16.17;77.69
34506;BME280;20748;42.632;23.198;2023-08-12T05:47:19;92636.38;;;16.30;78.54
34506;BME280;20748;42.632;23.198;2023-08-12T05:49:51;92631.53;;;16.32;78.78
34506;BME280;20748;42.632;23.198;2023-08-12T05:52:24;92647.00;;;16.43;77.00
34506;BME280;20748;42.632;23.198;2023-08-12T05:54:57;92641.22;;;16.49;77.08
34506;BME280;20748;42.632;23.198;2023-08-12T05:57:29;92640.41;;;16.58;77.01
34506;BME280;20748;42.632;23.198;2023-08-12T06:00:03;92638.34;;;16.63;75.70
34506;BME280;20748;42.632;23.198;2023-08-12T06:02:42;92632.75;;;16.65;75.88
34506;BME280;20748;42.632;23.198;2023-08-12T06:05:15;92634.63;;;16.64;75.69
34506;BME280;20748;42.632;23.198;2023-08-12T06:07:48;92623.38;;;16.76;75.99
34506;BME280;20748;42.632;23.198;2023-08-12T06:10:20;92633.00;;;17.02;74.94
34506;BME280;20748;42.632;23.198;2023-08-12T06:12:53;92628.72;;;17.10;75.02
34506;BME280;20748;42.632;23.198;2023-08-12T06:15:26;92632.38;;;17.18;74.83
34506;BME280;20748;42.632;23.198;2023-08-12T06:17:59;92618.38;;;17.26;73.42
34506;BME280;20748;42.632;23.198;2023-08-12T06:20:31;92625.53;;;17.38;73.52
34506;BME280;20748;42.632;23.198;2023-08-12T06:23:04;92632.38;;;17.52;73.31
34506;BME280;20748;42.632;23.198;2023-08-12T06:25:36;92633.00;;;17.70;73.04
34506;BME280;20748;42.632;23.198;2023-08-12T06:28:09;92628.31;;;17.88;72.78
34506;BME280;20748;42.632;23.198;2023-08-12T06:30:45;92629.88;;;18.14;71.90
34506;BME280;20748;42.632;23.198;2023-08-12T06:33:18;92618.22;;;18.28;71.41
34506;BME280;20748;42.632;23.198;2023-08-12T06:35:50;92624.06;;;18.33;70.92
34506;BME280;20748;42.632;23.198;2023-08-12T06:38:23;92624.59;;;18.51;69.07
34506;BME280;20748;42.632;23.198;2023-08-12T06:40:55;92625.78;;;18.54;68.21
34506;BME280;20748;42.632;23.198;2023-08-12T06:43:27;92609.16;;;18.66;68.78
34506;BME280;20748;42.632;23.198;2023-08-12T06:46:02;92617.72;;;18.75;68.91
34506;BME280;20748;42.632;23.198;2023-08-12T06:48:35;92620.31;;;19.00;68.03
34506;BME280;20748;42.632;23.198;2023-08-12T06:51:07;92615.63;;;19.22;67.34
34506;BME280;20748;42.632;23.198;2023-08-12T06:53:42;92617.13;;;19.36;65.80
34506;BME280;20748;42.632;23.198;2023-08-12T06:56:14;92619.19;;;19.42;64.93
34506;BME280;20748;42.632;23.198;2023-08-12T06:58:47;92620.66;;;19.56;63.84
34506;BME280;20748;42.632;23.198;2023-08-12T07:01:20;92618.78;;;19.56;63.11
34506;BME280;20748;42.632;23.198;2023-08-12T07:03:52;92615.16;;;19.77;64.40
34506;BME280;20748;42.632;23.198;2023-08-12T07:06:25;92613.94;;;19.75;63.48
34506;BME280;20748;42.632;23.198;2023-08-12T07:08:58;92610.44;;;19.86;64.11
34506;BME280;20748;42.632;23.198;2023-08-12T07:11:30;92607.22;;;20.09;63.07
34506;BME280;20748;42.632;23.198;2023-08-12T07:14:03;92610.13;;;20.20;62.23
34506;BME280;20748;42.632;23.198;2023-08-12T07:16:36;92613.97;;;20.23;61.47
34506;BME280;20748;42.632;23.198;2023-08-12T07:19:09;92601.81;;;20.38;61.80
34506;BME280;20748;42.632;23.198;2023-08-12T07:21:41;92617.41;;;20.59;60.38
34506;BME280;20748;42.632;23.198;2023-08-12T07:24:14;92618.78;;;20.69;59.57
34506;BME280;20748;42.632;23.198;2023-08-12T07:26:46;92614.38;;;20.77;59.25
34506;BME280;20748;42.632;23.198;2023-08-12T07:29:19;92612.06;;;20.91;60.20
34506;BME280;20748;42.632;23.198;2023-08-12T07:31:52;92614.50;;;21.00;59.64
34506;BME280;20748;42.632;23.198;2023-08-12T07:34:24;92613.19;;;20.90;58.50
34506;BME280;20748;42.632;23.198;2023-08-12T07:36:59;92618.28;;;21.19;58.38
34506;BME280;20748;42.632;23.198;2023-08-12T07:39:32;92613.31;;;21.37;59.14
34506;BME280;20748;42.632;23.198;2023-08-12T07:42:05;92610.91;;;21.52;59.29
34506;BME280;20748;42.632;23.198;2023-08-12T07:44:37;92614.78;;;21.35;57.29
34506;BME280;20748;42.632;23.198;2023-08-12T07:47:10;92614.69;;;21.51;57.93
34506;BME280;20748;42.632;23.198;2023-08-12T07:49:43;92602.72;;;21.60;57.84
34506;BME280;20748;42.632;23.198;2023-08-12T07:52:15;92609.13;;;21.79;56.98
34506;BME280;20748;42.632;23.198;2023-08-12T07:54:48;92606.78;;;21.74;56.35
34506;BME280;20748;42.632;23.198;2023-08-12T07:57:20;92607.19;;;21.99;56.53
34506;BME280;20748;42.632;23.198;2023-08-12T07:59:55;92600.06;;;22.04;55.46
34506;BME280;20748;42.632;23.198;2023-08-12T08:02:28;92597.31;;;22.23;54.40
34506;BME280;20748;42.632;23.198;2023-08-12T08:05:01;92590.56;;;22.30;53.31
34506;BME280;20748;42.632;23.198;2023-08-12T08:07:34;92606.63;;;22.37;53.08
34506;BME280;20748;42.632;23.198;2023-08-12T08:10:07;92586.34;;;22.25;53.15
34506;BME280;20748;42.632;23.198;2023-08-12T08:12:41;92602.22;;;22.48;52.70
34506;BME280;20748;42.632;23.198;2023-08-12T08:15:13;92602.06;;;22.61;51.66
34506;BME280;20748;42.632;23.198;2023-08-12T08:17:46;92605.31;;;22.50;51.30
34506;BME280;20748;42.632;23.198;2023-08-12T08:20:19;92600.88;;;22.58;53.41
34506;BME280;20748;42.632;23.198;2023-08-12T08:22:52;92604.78;;;22.64;53.30
34506;BME280;20748;42.632;23.198;2023-08-12T08:25:26;92597.91;;;22.63;51.80
34506;BME280;20748;42.632;23.198;2023-08-12T08:27:59;92603.69;;;22.69;53.06
34506;BME280;20748;42.632;23.198;2023-08-12T08:30:32;92600.97;;;22.65;51.53
34506;BME280;20748;42.632;23.198;2023-08-12T08:33:05;92598.22;;;22.89;51.53
34506;BME280;20748;42.632;23.198;2023-08-12T08:35:38;92598.78;;;23.02;49.58
34506;BME280;20748;42.632;23.198;2023-08-12T08:38:10;92597.63;;;23.03;50.00
34506;BME280;20748;42.632;23.198;2023-08-12T08:40:43;92593.75;;;23.27;50.52
34506;BME280;20748;42.632;23.198;2023-08-12T08:43:19;92590.81;;;23.36;49.01
34506;BME280;20748;42.632;23.198;2023-08-12T08:45:53;92591.81;;;23.58;48.05
34506;BME280;20748;42.632;23.198;2023-08-12T08:48:26;92597.06;;;23.51;48.91
34506;BME280;20748;42.632;23.198;2023-08-12T08:51:00;92585.19;;;23.41;48.59
34506;BME280;20748;42.632;23.198;2023-08-12T08:53:35;92584.34;;;23.75;47.96
34506;BME280;20748;42.632;23.198;2023-08-12T08:56:09;92592.94;;;23.99;48.34
34506;BME280;20748;42.632;23.198;2023-08-12T08:58:46;92589.56;;;24.06;46.91
34506;BME280;20748;42.632;23.198;2023-08-12T09:01:20;92591.06;;;24.03;48.02
34506;BME280;20748;42.632;23.198;2023-08-12T09:03:54;92584.22;;;24.06;47.24
34506;BME280;20748;42.632;23.198;2023-08-12T09:06:29;92573.41;;;24.36;46.26
34506;BME280;20748;42.632;23.198;2023-08-12T09:09:02;92573.97;;;24.64;45.13
34506;BME280;20748;42.632;23.198;2023-08-12T09:11:38;92568.69;;;24.71;45.08
34506;BME280;20748;42.632;23.198;2023-08-12T09:14:11;92577.56;;;24.90;46.59
34506;BME280;20748;42.632;23.198;2023-08-12T09:16:43;92574.41;;;24.77;44.25
34506;BME280;20748;42.632;23.198;2023-08-12T09:19:16;92572.59;;;24.92;45.47
34506;BME280;20748;42.632;23.198;2023-08-12T09:21:51;92577.91;;;24.85;43.54
34506;BME280;20748;42.632;23.198;2023-08-12T09:24:25;92574.94;;;25.01;44.45
34506;BME280;20748;42.632;23.198;2023-08-12T09:26:58;92562.38;;;25.09;44.68
34506;BME280;20748;42.632;23.198;2023-08-12T09:29:31;92564.34;;;25.33;43.85
34506;BME280;20748;42.632;23.198;2023-08-12T09:32:10;92560.22;;;25.47;42.94
34506;BME280;20748;42.632;23.198;2023-08-12T09:34:48;92556.31;;;25.23;43.79
34506;BME280;20748;42.632;23.198;2023-08-12T09:37:21;92555.97;;;25.28;43.24
34506;BME280;20748;42.632;23.198;2023-08-12T09:39:54;92556.34;;;25.41;44.26
34506;BME280;20748;42.632;23.198;2023-08-12T09:42:28;92547.19;;;25.27;41.20
34506;BME280;20748;42.632;23.198;2023-08-12T09:45:01;92551.88;;;25.70;42.74
34506;BME280;20748;42.632;23.198;2023-08-12T09:47:34;92551.50;;;25.79;40.73
34506;BME280;20748;42.632;23.198;2023-08-12T09:50:08;92541.56;;;25.62;41.64
34506;BME280;20748;42.632;23.198;2023-08-12T09:52:41;92547.66;;;25.62;41.85
34506;BME280;20748;42.632;23.198;2023-08-12T09:55:16;92541.56;;;25.72;40.98
34506;BME280;20748;42.632;23.198;2023-08-12T09:57:51;92542.31;;;25.66;41.18
34506;BME280;20748;42.632;23.198;2023-08-12T10:00:24;92540.81;;;25.79;41.69
34506;BME280;20748;42.632;23.198;2023-08-12T10:02:58;92538.50;;;25.85;41.16
34506;BME280;20748;42.632;23.198;2023-08-12T10:05:34;92534.69;;;25.79;39.72
34506;BME280;20748;42.632;23.198;2023-08-12T10:08:07;92530.50;;;25.78;39.63
34506;BME280;20748;42.632;23.198;2023-08-12T10:10:41;92535.06;;;25.70;40.51
34506;BME280;20748;42.632;23.198;2023-08-12T10:13:14;92531.25;;;25.89;42.66
34506;BME280;20748;42.632;23.198;2023-08-12T10:15:49;92532.03;;;25.93;40.31
34506;BME280;20748;42.632;23.198;2023-08-12T10:18:22;92522.47;;;26.10;40.00
34506;BME280;20748;42.632;23.198;2023-08-12T10:20:57;92533.94;;;26.36;39.01
34506;BME280;20748;42.632;23.198;2023-08-12T10:23:32;92526.66;;;26.37;37.34
34506;BME280;20748;42.632;23.198;2023-08-12T10:26:06;92505.25;;;26.22;38.70
34506;BME280;20748;42.632;23.198;2023-08-12T10:28:39;92523.22;;;26.44;39.00
34506;BME280;20748;42.632;23.198;2023-08-12T10:31:12;92522.06;;;26.26;39.37
34506;BME280;20748;42.632;23.198;2023-08-12T10:33:44;92520.19;;;26.27;39.27
34506;BME280;20748;42.632;23.198;2023-08-12T10:36:22;92516.66;;;26.63;38.97
34506;BME280;20748;42.632;23.198;2023-08-12T10:38:56;92508.91;;;26.94;37.49
34506;BME280;20748;42.632;23.198;2023-08-12T10:41:28;92509.59;;;27.13;36.97
34506;BME280;20748;42.632;23.198;2023-08-12T10:44:05;92512.66;;;27.11;36.82
34506;BME280;20748;42.632;23.198;2023-08-12T10:46:37;92515.78;;;26.99;38.26
34506;BME280;20748;42.632;23.198;2023-08-12T10:49:10;92508.53;;;26.88;37.14
34506;BME280;20748;42.632;23.198;2023-08-12T10:51:48;92513.13;;;26.95;36.96
34506;BME280;20748;42.632;23.198;2023-08-12T10:54:22;92495.00;;;27.21;37.25
34506;BME280;20748;42.632;23.198;2023-08-12T10:57:10;92500.91;;;26.87;37.27
34506;BME280;20748;42.632;23.198;2023-08-12T10:59:54;92501.94;;;27.18;36.72
34506;BME280;20748;42.632;23.198;2023-08-12T11:02:28;92503.75;;;27.29;37.21
34506;BME280;20748;42.632;23.198;2023-08-12T11:05:03;92499.91;;;27.37;35.82
34506;BME280;20748;42.632;23.198;2023-08-12T11:07:39;92501.28;;;27.64;35.66
34506;BME280;20748;42.632;23.198;2023-08-12T11:10:14;92495.91;;;27.56;35.31
34506;BME280;20748;42.632;23.198;2023-08-12T11:12:53;92496.69;;;27.57;36.54
34506;BME280;20748;42.632;23.198;2023-08-12T11:15:30;92491.75;;;27.52;36.97
34506;BME280;20748;42.632;23.198;2023-08-12T11:18:04;92485.50;;;27.73;36.57
34506;BME280;20748;42.632;23.198;2023-08-12T11:20:37;92487.53;;;27.58;35.26
34506;BME280;20748;42.632;23.198;2023-08-12T11:23:11;92486.22;;;27.81;33.41
34506;BME280;20748;42.632;23.198;2023-08-12T11:25:44;92484.50;;;28.01;34.47
34506;BME280;20748;42.632;23.198;2023-08-12T11:28:18;92483.53;;;27.81;33.47
34506;BME280;20748;42.632;23.198;2023-08-12T11:30:50;92480.16;;;28.15;35.46
34506;BME280;20748;42.632;23.198;2023-08-12T11:33:23;92485.56;;;28.11;34.55
34506;BME280;20748;42.632;23.198;2023-08-12T11:35:56;92479.53;;;28.00;34.70
34506;BME280;20748;42.632;23.198;2023-08-12T11:38:29;92485.78;;;27.86;33.78
34506;BME280;20748;42.632;23.198;2023-08-12T11:41:03;92483.50;;;27.84;34.45
34506;BME280;20748;42.632;23.198;2023-08-12T11:43:36;92485.19;;;27.64;33.70
34506;BME280;20748;42.632;23.198;2023-08-12T11:46:08;92473.28;;;27.68;32.36
34506;BME280;20748;42.632;23.198;2023-08-12T11:48:43;92479.84;;;27.56;34.56
34506;BME280;20748;42.632;23.198;2023-08-12T11:51:15;92471.13;;;27.98;33.57
34506;BME280;20748;42.632;23.198;2023-08-12T11:53:49;92474.41;;;28.17;33.35
34506;BME280;20748;42.632;23.198;2023-08-12T11:56:22;92473.19;;;28.25;32.74
34506;BME280;20748;42.632;23.198;2023-08-12T11:58:54;92462.06;;;28.26;32.73
34506;BME280;20748;42.632;23.198;2023-08-12T12:01:27;92468.38;;;28.05;31.29
34506;BME280;20748;42.632;23.198;2023-08-12T12:04:00;92460.09;;;27.88;29.97
34506;BME280;20748;42.632;23.198;2023-08-12T12:06:36;92462.03;;;28.30;33.30
34506;BME280;20748;42.632;23.198;2023-08-12T12:09:10;92459.13;;;28.10;32.03
34506;BME280;20748;42.632;23.198;2023-08-12T12:11:43;92460.94;;;28.24;31.98
34506;BME280;20748;42.632;23.198;2023-08-12T12:14:15;92454.06;;;28.23;31.35
34506;BME280;20748;42.632;23.198;2023-08-12T12:16:48;92460.47;;;28.33;31.38
34506;BME280;20748;42.632;23.198;2023-08-12T12:19:23;92460.75;;;28.42;31.49
34506;BME280;20748;42.632;23.198;2023-08-12T12:21:55;92455.22;;;28.57;31.59
34506;BME280;20748;42.632;23.198;2023-08-12T12:24:30;92444.81;;;28.62;31.92
34506;BME280;20748;42.632;23.198;2023-08-12T12:27:03;92447.28;;;28.49;33.46
34506;BME280;20748;42.632;23.198;2023-08-12T12:29:36;92451.88;;;28.49;31.59
34506;BME280;20748;42.632;23.198;2023-08-12T12:32:10;92448.53;;;28.37;30.82
34506;BME280;20748;42.632;23.198;2023-08-12T12:34:43;92449.06;;;28.21;31.95
34506;BME280;20748;42.632;23.198;2023-08-12T12:37:16;92441.81;;;28.18;33.70
34506;BME280;20748;42.632;23.198;2023-08-12T12:39:49;92454.38;;;27.86;33.90
34506;BME280;20748;42.632;23.198;2023-08-12T12:42:22;92458.34;;;27.71;35.48
34506;BME280;20748;42.632;23.198;2023-08-12T12:44:54;92446.84;;;27.70;35.69
34506;BME280;20748;42.632;23.198;2023-08-12T12:47:27;92450.00;;;27.58;36.40
34506;BME280;20748;42.632;23.198;2023-08-12T12:50:00;92445.91;;;27.39;37.46
34506;BME280;20748;42.632;23.198;2023-08-12T12:52:34;92439.53;;;27.21;36.82
34506;BME280;20748;42.632;23.198;2023-08-12T12:55:08;92434.72;;;26.94;36.62
34506;BME280;20748;42.632;23.198;2023-08-12T12:57:40;92429.78;;;26.82;38.61
34506;BME280;20748;42.632;23.198;2023-08-12T13:00:13;92433.19;;;26.93;37.40
34506;BME280;20748;42.632;23.198;2023-08-12T13:02:45;92428.56;;;27.01;37.41
34506;BME280;20748;42.632;23.198;2023-08-12T13:05:19;92433.84;;;27.12;37.33
34506;BME280;20748;42.632;23.198;2023-08-12T13:07:51;92417.94;;;26.87;36.70
34506;BME280;20748;42.632;23.198;2023-08-12T13:10:25;92433.28;;;26.75;37.94
34506;BME280;20748;42.632;23.198;2023-08-12T13:12:57;92429.81;;;26.78;36.99
34506;BME280;20748;42.632;23.198;2023-08-12T13:15:30;92434.25;;;26.25;37.60
34506;BME280;20748;42.632;23.198;2023-08-12T13:18:03;92435.34;;;26.20;38.67
34506;BME280;20748;42.632;23.198;2023-08-12T13:20:36;92414.69;;;26.35;36.66
34506;BME280;20748;42.632;23.198;2023-08-12T13:23:09;92432.22;;;26.51;37.11